Emit, North Carolina
Current Conditions -  °F | °C
As of 7:53 AM on Tuesday 21 Oct 2014 (Local Time) from KRWI Reporting Station
Haze Haze  
Wind Chill: 52°   Ceiling: Unl
Heat Index: 52°   Visibility: 6mi
Dew Point: 51°   Wind: 0mph
Humidity: 97%   Direction: NA
Pressure: 29.93"   Gusts: NA
Location:  35.7662°N, 78.206°W
Report Text: KRWI 211153Z AUTO 00000KT 6SM BR SCT110 11/11 A2993 RMK AO2 SLP134 T01110106 10150 20111 51005
Loading
Personal Weather Stations






























Interactive Weather Map
Tropical Storm Tracking
New forecast layout! Learn more

10-Day Weather Forecast

Advertisements
Track Severe Weather on mobile